Time,TemperatureF,DewpointF,PressureIn,WindDirection,WindDirectionDegrees,WindSpeedMPH,WindSpeedGustMPH,Humidity,HourlyPrecipIn,Conditions,Clouds,dailyrainin,SoftwareType,DateUTC
2013-09-20 00:24:00,63.0,62.0,30.14,SSW,207,0.0,0.0,98,0.00,,,0.00,,2013-09-20 04:24:00,
2013-09-20 00:54:00,63.0,62.0,30.13,SSW,207,0.0,0.0,98,0.00,,,0.00,,2013-09-20 04:54:00,
2013-09-20 01:23:00,63.0,62.0,30.13,SSW,207,0.0,0.0,98,0.00,,,0.00,,2013-09-20 05:23:00,
2013-09-20 01:53:00,63.0,62.0,30.13,SSW,207,0.0,0.0,98,0.00,,,0.00,,2013-09-20 05:53:00,
2013-09-20 02:12:00,63.0,62.0,30.13,SSW,207,0.0,0.0,98,0.00,,,0.00,,2013-09-20 06:12:00,
2013-09-20 02:22:00,63.0,62.0,30.12,SSW,207,0.0,0.0,98,0.00,,,0.00,,2013-09-20 06:22:00,
2013-09-20 02:52:00,63.0,62.0,30.12,SSW,207,0.0,0.0,98,0.00,,,0.00,,2013-09-20 06:52:00,
2013-09-20 03:12:00,63.0,62.0,30.11,SSW,207,0.0,0.0,98,0.00,,,0.00,,2013-09-20 07:12:00,
2013-09-20 03:23:00,63.0,62.0,30.11,SSW,207,0.0,0.0,98,0.00,,,0.00,,2013-09-20 07:23:00,
2013-09-20 03:53:00,63.0,62.0,30.11,SSW,207,0.0,0.0,98,0.00,,,0.00,,2013-09-20 07:53:00,
2013-09-20 04:11:00,63.0,62.0,30.10,SSW,207,0.0,0.0,98,0.00,,,0.00,,2013-09-20 08:11:00,
2013-09-20 04:22:00,63.0,62.0,30.10,SSW,207,0.0,0.0,98,0.00,,,0.00,,2013-09-20 08:22:00,
2013-09-20 04:52:00,63.0,62.0,30.10,SSW,207,0.0,0.0,98,0.00,,,0.00,,2013-09-20 08:52:00,
2013-09-20 05:22:00,62.0,61.0,30.09,SSW,207,0.0,0.0,98,0.00,,,0.00,,2013-09-20 09:22:00,
2013-09-20 05:53:00,62.0,61.0,30.09,SSW,207,0.0,0.0,98,0.00,,,0.00,,2013-09-20 09:53:00,
2013-09-20 06:23:00,62.0,61.0,30.10,SSW,207,0.0,0.0,98,0.00,,,0.00,,2013-09-20 10:23:00,
2013-09-20 06:53:00,63.0,63.0,30.09,SSW,207,0.0,0.0,99,0.00,,,0.00,,2013-09-20 10:53:00,
2013-09-20 07:23:00,63.0,63.0,30.10,SSW,207,0.0,0.0,99,0.00,,,0.00,,2013-09-20 11:23:00,
2013-09-20 07:52:00,63.0,63.0,30.10,SSW,200,0.0,0.0,99,0.00,,,0.00,,2013-09-20 11:52:00,
2013-09-20 08:12:00,63.0,63.0,30.10,SSW,200,0.0,0.0,99,0.00,,,0.00,,2013-09-20 12:12:00,
2013-09-20 08:22:00,63.0,63.0,30.11,SSW,200,0.0,0.0,99,0.00,,,0.00,,2013-09-20 12:22:00,
2013-09-20 08:52:00,63.0,63.0,30.11,SSW,200,0.0,0.0,99,0.00,,,0.00,,2013-09-20 12:52:00,
2013-09-20 09:22:00,64.0,64.0,30.11,ENE,70,1.0,3.0,99,0.00,,,0.00,,2013-09-20 13:22:00,
2013-09-20 09:53:00,65.0,65.0,30.11,ENE,76,1.0,3.0,99,0.00,,,0.00,,2013-09-20 13:53:00,
2013-09-20 10:21:00,66.0,65.0,30.10,ESE,118,1.0,3.0,98,0.00,,,0.00,,2013-09-20 14:21:00,
2013-09-20 10:52:00,71.0,67.0,30.10,East,82,2.0,3.0,87,0.00,,,0.00,,2013-09-20 14:52:00,
2013-09-20 11:12:00,72.0,67.0,30.09,South,178,0.0,2.0,85,0.00,,,0.00,,2013-09-20 15:12:00,
2013-09-20 11:22:00,73.0,68.0,30.09,SSE,159,1.0,3.0,83,0.00,,,0.00,,2013-09-20 15:22:00,
2013-09-20 11:54:00,74.0,68.0,30.09,SSE,165,2.0,4.0,82,0.00,,,0.00,,2013-09-20 15:54:00,
2013-09-20 12:23:00,76.0,68.0,30.08,SW,223,1.0,4.0,77,0.00,,,0.00,,2013-09-20 16:23:00,
2013-09-20 12:53:00,76.0,69.0,30.06,SW,221,1.0,4.0,79,0.00,,,0.00,,2013-09-20 16:53:00,
2013-09-20 13:24:00,78.0,68.0,30.06,South,179,2.0,6.0,71,0.00,,,0.00,,2013-09-20 17:24:00,
2013-09-20 13:53:00,80.0,68.0,30.04,WSW,248,1.0,6.0,67,0.00,,,0.00,,2013-09-20 17:53:00,
2013-09-20 14:22:00,81.0,68.0,30.03,South,187,2.0,5.0,65,0.00,,,0.00,,2013-09-20 18:22:00,
2013-09-20 14:52:00,79.0,68.0,30.02,SSW,207,2.0,4.0,68,0.00,,,0.00,,2013-09-20 18:52:00,
2013-09-20 15:12:00,80.0,69.0,30.01,SSW,211,2.0,6.0,70,0.00,,,0.00,,2013-09-20 19:12:00,
2013-09-20 15:22:00,79.0,69.0,30.00,SSW,197,1.0,3.0,72,0.00,,,0.00,,2013-09-20 19:22:00,
2013-09-20 15:53:00,82.0,70.0,30.00,South,183,1.0,5.0,67,0.00,,,0.00,,2013-09-20 19:53:00,
2013-09-20 16:22:00,81.0,69.0,30.00,ESE,113,6.0,11.0,67,0.00,,,0.00,,2013-09-20 20:22:00,
2013-09-20 16:52:00,75.0,68.0,29.99,NE,55,9.0,13.0,79,0.00,,,0.00,,2013-09-20 20:52:00,
2013-09-20 17:22:00,72.0,68.0,30.00,East,101,7.0,15.0,86,0.00,,,0.00,,2013-09-20 21:22:00,
2013-09-20 17:55:00,71.0,68.0,30.00,NE,46,4.0,8.0,89,0.00,,,0.00,,2013-09-20 21:55:00,
2013-09-20 18:24:00,70.0,68.0,30.01,ESE,119,3.0,10.0,94,0.01,,,0.01,,2013-09-20 22:24:00,
2013-09-20 18:53:00,69.0,68.0,30.02,ENE,62,3.0,5.0,95,0.02,,,0.02,,2013-09-20 22:53:00,
2013-09-20 19:13:00,69.0,68.0,30.02,NNE,24,2.0,7.0,95,0.02,,,0.03,,2013-09-20 23:13:00,
2013-09-20 19:22:00,69.0,68.0,30.02,NE,49,1.0,6.0,96,0.05,,,0.06,,2013-09-20 23:22:00,
2013-09-20 19:53:00,68.0,67.0,30.02,NE,54,2.0,5.0,96,0.04,,,0.06,,2013-09-20 23:53:00,
2013-09-20 20:11:00,68.0,67.0,30.01,ENE,68,3.0,8.0,96,0.03,,,0.07,,2013-09-21 00:11:00,
2013-09-20 20:22:00,68.0,67.0,30.02,ENE,78,0.0,5.0,96,0.01,,,0.07,,2013-09-21 00:22:00,
2013-09-20 20:42:00,68.0,67.0,30.02,East,84,3.0,7.0,96,0.01,,,0.07,,2013-09-21 00:42:00,
2013-09-20 20:52:00,68.0,67.0,30.02,ESE,107,2.0,4.0,96,0.01,,,0.07,,2013-09-21 00:52:00,
2013-09-20 21:22:00,67.0,66.0,30.02,East,82,4.0,7.0,97,0.00,,,0.07,,2013-09-21 01:22:00,
2013-09-20 21:52:00,67.0,66.0,30.02,ENE,78,4.0,7.0,96,0.00,,,0.07,,2013-09-21 01:52:00,
2013-09-20 22:12:00,67.0,66.0,30.02,East,83,3.0,5.0,96,0.00,,,0.07,,2013-09-21 02:12:00,
2013-09-20 22:22:00,67.0,66.0,30.01,East,99,4.0,7.0,97,0.00,,,0.07,,2013-09-21 02:22:00,
2013-09-20 22:42:00,66.0,65.0,30.01,ENE,76,3.0,7.0,97,0.00,,,0.07,,2013-09-21 02:42:00,
2013-09-20 22:52:00,66.0,65.0,30.01,East,92,2.0,5.0,97,0.00,,,0.07,,2013-09-21 02:52:00,
2013-09-20 23:22:00,66.0,65.0,30.01,ENE,68,2.0,4.0,98,0.00,,,0.07,,2013-09-21 03:22:00,
2013-09-20 23:55:00,66.0,65.0,30.01,East,92,2.0,5.0,98,0.00,,,0.07,,2013-09-21 03:55:00,